createdAt,value
2023-04-30T00:01:14.415Z,11.70
2023-04-30T00:03:41.586Z,11.70
2023-04-30T00:06:08.680Z,11.70
2023-04-30T00:08:35.918Z,11.60
2023-04-30T00:11:02.951Z,11.50
2023-04-30T00:13:30.062Z,11.50
2023-04-30T00:15:57.177Z,11.40
2023-04-30T00:18:24.236Z,11.50
2023-04-30T00:20:53.556Z,11.40
2023-04-30T00:23:20.614Z,11.30
2023-04-30T00:25:47.801Z,11.30
2023-04-30T00:28:14.917Z,11.40
2023-04-30T00:30:42.042Z,11.40
2023-04-30T00:33:09.151Z,11.40
2023-04-30T00:35:36.200Z,11.40
2023-04-30T00:38:03.293Z,11.40
2023-04-30T00:40:30.597Z,11.40
2023-04-30T00:42:57.612Z,11.30
2023-04-30T00:45:24.691Z,11.40
2023-04-30T00:47:51.810Z,11.40
2023-04-30T00:50:18.960Z,11.40
2023-04-30T00:52:46.237Z,11.40
2023-04-30T00:55:13.803Z,11.40
2023-04-30T00:57:41.164Z,11.40
2023-04-30T01:00:12.202Z,11.30
2023-04-30T01:02:39.705Z,11.30
2023-04-30T01:05:08.001Z,11.40
2023-04-30T01:07:36.523Z,11.40
2023-04-30T01:10:03.748Z,11.30
2023-04-30T01:12:45.336Z,11.30
2023-04-30T01:15:29.296Z,11.40
2023-04-30T01:18:04.073Z,11.40
2023-04-30T01:20:32.464Z,11.30
2023-04-30T01:23:36.587Z,11.40
2023-04-30T01:26:41.014Z,11.40
2023-04-30T01:29:13.086Z,11.40
2023-04-30T01:31:43.533Z,11.30
2023-04-30T01:34:11.331Z,11.20
2023-04-30T01:36:50.425Z,11.20
2023-04-30T01:39:35.453Z,11.20
2023-04-30T01:42:14.228Z,11.10
2023-04-30T01:45:02.520Z,11.10
2023-04-30T01:47:50.889Z,11.20
2023-04-30T01:50:36.687Z,11.10
2023-04-30T01:53:07.374Z,11.10
2023-04-30T01:55:48.334Z,11.10
2023-04-30T01:58:16.685Z,11.00
2023-04-30T02:00:43.666Z,11.00
2023-04-30T02:03:10.909Z,11.00
2023-04-30T02:05:38.025Z,11.00
2023-04-30T02:08:06.217Z,11.00
2023-04-30T02:10:34.069Z,11.10
2023-04-30T02:13:01.247Z,11.00
2023-04-30T02:15:28.379Z,10.90
2023-04-30T02:17:55.352Z,11.00
2023-04-30T02:20:22.506Z,11.00
2023-04-30T02:22:49.607Z,11.10
2023-04-30T02:25:16.754Z,11.00
2023-04-30T02:27:43.872Z,11.10
2023-04-30T02:30:11.206Z,11.00
2023-04-30T02:32:38.300Z,10.90
2023-04-30T02:35:05.735Z,11.00
2023-04-30T02:37:32.781Z,11.10
2023-04-30T02:40:00.058Z,11.10
2023-04-30T02:42:27.152Z,11.10
2023-04-30T02:44:54.213Z,11.00
2023-04-30T02:47:21.468Z,11.00
2023-04-30T02:49:48.567Z,11.00
2023-04-30T02:52:15.857Z,10.90
2023-04-30T02:54:43.094Z,10.80
2023-04-30T02:57:11.895Z,10.80
2023-04-30T02:59:39.701Z,10.80
2023-04-30T03:02:07.214Z,10.70
2023-04-30T03:04:34.324Z,10.70
2023-04-30T03:07:01.372Z,10.80
2023-04-30T03:09:28.439Z,10.80
2023-04-30T03:11:55.520Z,10.70
2023-04-30T03:14:22.608Z,10.70
2023-04-30T03:16:49.794Z,10.90
2023-04-30T03:19:17.649Z,10.90
2023-04-30T03:21:44.785Z,10.80
2023-04-30T03:24:11.861Z,10.70
2023-04-30T03:26:39.378Z,10.80
2023-04-30T03:29:06.381Z,10.90
2023-04-30T03:31:33.421Z,10.80
2023-04-30T03:34:00.557Z,10.70
2023-04-30T03:36:27.599Z,10.60
2023-04-30T03:38:54.848Z,10.70
2023-04-30T03:41:24.373Z,10.60
2023-04-30T03:43:51.453Z,10.60
2023-04-30T03:46:18.659Z,10.60
2023-04-30T03:48:45.740Z,10.70
2023-04-30T03:51:12.803Z,10.80
2023-04-30T03:53:39.884Z,10.80
2023-04-30T03:56:07.604Z,10.60
2023-04-30T03:58:34.599Z,10.60
2023-04-30T04:01:01.622Z,10.60
2023-04-30T04:03:28.798Z,10.60
2023-04-30T04:05:56.286Z,10.60
2023-04-30T04:08:24.181Z,10.60
2023-04-30T04:10:51.340Z,10.60
2023-04-30T04:13:19.005Z,10.60
2023-04-30T04:15:46.069Z,10.60
2023-04-30T04:18:13.102Z,10.60
2023-04-30T04:20:40.461Z,10.60
2023-04-30T04:23:07.524Z,10.50
2023-04-30T04:25:35.310Z,10.60
2023-04-30T04:28:02.411Z,10.50
2023-04-30T04:30:29.541Z,10.50
2023-04-30T04:32:57.748Z,10.60
2023-04-30T04:35:24.932Z,10.60
2023-04-30T04:37:51.929Z,10.60
2023-04-30T04:40:19.117Z,10.70
2023-04-30T04:42:48.632Z,10.60
2023-04-30T04:45:16.341Z,10.60
2023-04-30T04:47:43.680Z,10.60
2023-04-30T04:50:11.346Z,10.50
2023-04-30T04:52:39.216Z,10.60
2023-04-30T04:55:07.284Z,10.60
2023-04-30T04:57:34.360Z,10.60
2023-04-30T05:00:01.480Z,10.50
2023-04-30T05:02:28.752Z,10.60
2023-04-30T05:04:56.325Z,10.70
2023-04-30T05:07:23.363Z,10.60
2023-04-30T05:09:50.381Z,10.60
2023-04-30T05:12:17.472Z,10.60
2023-04-30T05:14:45.264Z,10.60
2023-04-30T05:17:12.488Z,10.60
2023-04-30T05:19:39.554Z,10.50
2023-04-30T05:22:06.655Z,10.60
2023-04-30T05:24:34.260Z,10.60
2023-04-30T05:27:03.023Z,10.70
2023-04-30T05:29:30.224Z,10.70
2023-04-30T05:31:57.411Z,10.50
2023-04-30T05:34:24.472Z,10.60
2023-04-30T05:36:51.550Z,10.60
2023-04-30T05:39:18.734Z,10.60
2023-04-30T05:41:45.878Z,10.70
2023-04-30T05:44:12.882Z,10.60
2023-04-30T05:46:39.943Z,10.70
2023-04-30T05:49:07.347Z,10.70
2023-04-30T05:51:34.455Z,10.70
2023-04-30T05:54:01.574Z,10.70
2023-04-30T05:56:28.936Z,10.60
2023-04-30T05:58:56.161Z,10.70
2023-04-30T06:01:25.841Z,10.80
2023-04-30T06:03:53.042Z,10.80
2023-04-30T06:06:20.020Z,10.80
2023-04-30T06:08:47.587Z,10.80
2023-04-30T06:11:15.440Z,10.80
2023-04-30T06:13:42.613Z,10.70
2023-04-30T06:16:09.968Z,10.80
2023-04-30T06:18:37.141Z,10.80
2023-04-30T06:21:04.411Z,10.80
2023-04-30T06:23:31.605Z,10.80
2023-04-30T06:25:58.797Z,10.90
2023-04-30T06:28:26.039Z,10.90
2023-04-30T06:30:54.528Z,10.80
2023-04-30T06:33:22.131Z,10.90
2023-04-30T06:35:51.307Z,10.90
2023-04-30T06:38:18.511Z,10.90
2023-04-30T06:40:45.724Z,11.00
2023-04-30T06:43:12.757Z,10.90
2023-04-30T06:45:40.484Z,11.00
2023-04-30T06:48:07.867Z,11.00
2023-04-30T06:50:35.152Z,11.10
2023-04-30T06:53:02.994Z,11.10
2023-04-30T06:55:30.036Z,11.20
2023-04-30T06:57:58.115Z,11.20
2023-04-30T07:00:25.547Z,11.20
2023-04-30T07:02:52.785Z,11.20
2023-04-30T07:05:20.098Z,11.20
2023-04-30T07:07:47.231Z,11.20
2023-04-30T07:10:14.498Z,11.10
2023-04-30T07:12:41.543Z,11.20
2023-04-30T07:15:09.053Z,11.30
2023-04-30T07:17:36.634Z,11.30
2023-04-30T07:20:05.080Z,11.30
2023-04-30T07:22:33.082Z,11.40
2023-04-30T07:25:00.829Z,11.40
2023-04-30T07:27:28.426Z,11.60
2023-04-30T07:29:56.276Z,11.50
2023-04-30T07:32:27.228Z,11.70
2023-04-30T07:34:54.431Z,11.70
2023-04-30T07:37:22.128Z,11.80
2023-04-30T07:39:49.282Z,11.90
2023-04-30T07:42:16.660Z,12.00
2023-04-30T07:44:44.017Z,11.90
2023-04-30T07:47:11.333Z,12.10
2023-04-30T07:49:38.475Z,12.20
2023-04-30T07:52:06.094Z,12.20
2023-04-30T07:54:36.524Z,12.40
2023-04-30T07:57:03.879Z,12.50
2023-04-30T07:59:31.263Z,12.50
2023-04-30T08:01:59.150Z,12.50
2023-04-30T08:04:26.536Z,12.50
2023-04-30T08:06:53.601Z,12.60
2023-04-30T08:09:20.901Z,12.60
2023-04-30T08:11:48.082Z,12.50
2023-04-30T08:14:15.130Z,12.60
2023-04-30T08:16:42.634Z,12.70
2023-04-30T08:19:09.770Z,12.70
2023-04-30T08:21:37.007Z,12.80
2023-04-30T08:24:04.197Z,12.70
2023-04-30T08:26:31.297Z,12.90
2023-04-30T08:28:58.458Z,13.10
2023-04-30T08:31:25.820Z,12.90
2023-04-30T08:33:53.037Z,13.30
2023-04-30T08:36:20.459Z,13.10
2023-04-30T08:38:47.666Z,13.30
2023-04-30T08:41:17.673Z,13.70
2023-04-30T08:43:45.305Z,13.80
2023-04-30T08:46:14.115Z,13.90
2023-04-30T08:48:41.732Z,14.30
2023-04-30T08:51:08.904Z,14.20
2023-04-30T08:53:38.376Z,14.20
2023-04-30T08:56:05.905Z,14.30
2023-04-30T08:58:33.092Z,14.40
2023-04-30T09:01:01.418Z,14.60
2023-04-30T09:03:28.854Z,14.60
2023-04-30T09:05:57.195Z,14.10
2023-04-30T09:08:44.918Z,14.30
2023-04-30T09:11:31.702Z,14.50
2023-04-30T09:14:00.659Z,14.30
2023-04-30T09:16:44.808Z,14.60
2023-04-30T09:19:28.256Z,14.50
2023-04-30T09:21:55.856Z,14.40
2023-04-30T09:24:23.991Z,14.70
2023-04-30T09:26:51.785Z,15.00
2023-04-30T09:29:18.853Z,15.10
2023-04-30T09:31:47.585Z,15.50
2023-04-30T09:34:15.540Z,15.30
2023-04-30T09:36:56.564Z,15.50
2023-04-30T09:39:24.226Z,15.00
2023-04-30T09:41:54.595Z,14.80
2023-04-30T09:44:28.824Z,15.30
2023-04-30T09:47:00.423Z,16.10
2023-04-30T09:49:27.972Z,16.50
2023-04-30T09:51:58.787Z,17.00
2023-04-30T09:54:30.717Z,16.80
2023-04-30T09:57:01.884Z,17.00
2023-04-30T09:59:33.037Z,17.20
2023-04-30T10:02:02.687Z,17.60
2023-04-30T10:04:33.528Z,17.80
2023-04-30T10:07:04.786Z,17.30
2023-04-30T10:10:05.293Z,17.60
2023-04-30T10:12:54.587Z,17.60
2023-04-30T10:15:26.666Z,17.70
2023-04-30T10:18:04.340Z,17.90
2023-04-30T10:20:36.523Z,17.80
2023-04-30T10:23:04.836Z,17.50
2023-04-30T10:25:33.025Z,17.60
2023-04-30T10:28:01.999Z,17.10
2023-04-30T10:30:32.074Z,17.80
2023-04-30T10:33:10.843Z,18.10
2023-04-30T10:35:49.157Z,17.60
2023-04-30T10:38:23.359Z,17.10
2023-04-30T10:40:51.259Z,16.80
2023-04-30T10:43:20.134Z,17.10
2023-04-30T10:45:47.359Z,16.80
2023-04-30T10:48:16.990Z,16.80
2023-04-30T10:50:46.201Z,16.60
2023-04-30T10:53:17.573Z,16.80
2023-04-30T10:55:57.584Z,17.90
2023-04-30T10:58:31.252Z,18.00
2023-04-30T11:01:15.529Z,18.60
2023-04-30T11:04:03.875Z,19.00
2023-04-30T11:06:52.746Z,19.30
2023-04-30T11:09:24.406Z,18.90
2023-04-30T11:12:10.004Z,19.20
2023-04-30T11:14:41.694Z,19.00
2023-04-30T11:17:11.309Z,19.50
2023-04-30T11:19:51.427Z,20.00
2023-04-30T11:22:21.513Z,20.20
2023-04-30T11:24:54.648Z,20.60
2023-04-30T11:27:24.313Z,20.40
2023-04-30T11:29:53.115Z,19.80
2023-04-30T11:32:22.040Z,19.30
2023-04-30T11:34:50.049Z,18.70
2023-04-30T11:37:33.386Z,18.40
2023-04-30T11:40:02.883Z,18.70
2023-04-30T11:42:36.610Z,19.60
2023-04-30T11:45:09.117Z,20.10
2023-04-30T11:47:55.238Z,20.70
2023-04-30T11:50:29.348Z,20.70
2023-04-30T11:52:58.983Z,21.20
2023-04-30T11:55:28.570Z,21.30
2023-04-30T11:57:59.402Z,20.20
2023-04-30T12:00:29.494Z,19.70
2023-04-30T12:02:58.094Z,19.10
2023-04-30T12:05:28.096Z,18.70
2023-04-30T12:07:58.116Z,18.60
2023-04-30T12:10:25.981Z,19.80
2023-04-30T12:12:54.848Z,19.50
2023-04-30T12:15:27.127Z,18.90
2023-04-30T12:17:57.229Z,18.50
2023-04-30T12:20:31.101Z,18.80
2023-04-30T12:22:58.790Z,20.20
2023-04-30T12:25:29.601Z,21.00
2023-04-30T12:27:59.520Z,20.60
2023-04-30T12:30:27.621Z,20.00
2023-04-30T12:32:58.126Z,19.60
2023-04-30T12:35:27.864Z,18.90
2023-04-30T12:38:06.133Z,18.60
2023-04-30T12:40:34.436Z,18.70
2023-04-30T12:43:07.497Z,19.00
2023-04-30T12:45:56.504Z,18.90
2023-04-30T12:48:26.137Z,19.70
2023-04-30T12:50:53.332Z,20.60
2023-04-30T12:53:22.016Z,20.70
2023-04-30T12:56:15.413Z,21.30
2023-04-30T12:58:45.686Z,21.90
2023-04-30T13:01:13.950Z,22.30
2023-04-30T13:03:41.534Z,22.60
2023-04-30T13:06:10.670Z,22.60
2023-04-30T13:08:49.808Z,22.40
2023-04-30T13:11:26.700Z,22.50
2023-04-30T13:13:57.579Z,22.90
2023-04-30T13:16:25.428Z,22.80
2023-04-30T13:18:53.084Z,23.00
2023-04-30T13:21:21.320Z,22.50
2023-04-30T13:23:53.757Z,22.60
2023-04-30T13:26:23.606Z,22.80
2023-04-30T13:28:51.237Z,22.00
2023-04-30T13:31:18.670Z,21.00
2023-04-30T13:33:46.045Z,20.60
2023-04-30T13:36:13.265Z,20.20
2023-04-30T13:38:40.591Z,19.80
2023-04-30T13:41:10.539Z,19.60
2023-04-30T13:43:41.425Z,19.70
2023-04-30T13:46:09.593Z,19.60
2023-04-30T13:48:36.895Z,19.50
2023-04-30T13:51:04.030Z,19.40
2023-04-30T13:53:31.140Z,19.60
2023-04-30T13:55:59.421Z,20.70
2023-04-30T13:58:27.303Z,20.50
2023-04-30T14:00:54.416Z,20.20
2023-04-30T14:03:21.872Z,20.10
2023-04-30T14:05:49.144Z,19.80
2023-04-30T14:08:16.678Z,19.70
2023-04-30T14:10:43.950Z,19.70
2023-04-30T14:13:11.153Z,19.50
2023-04-30T14:15:38.748Z,19.50
2023-04-30T14:18:06.069Z,19.40
2023-04-30T14:20:33.461Z,19.50
2023-04-30T14:23:02.752Z,19.40
2023-04-30T14:25:30.231Z,19.50
2023-04-30T14:27:57.408Z,19.60
2023-04-30T14:30:24.770Z,19.60
2023-04-30T14:32:52.080Z,19.60
2023-04-30T14:35:19.276Z,19.50
2023-04-30T14:37:46.330Z,19.80
2023-04-30T14:40:14.040Z,20.20
2023-04-30T14:42:41.112Z,20.80
2023-04-30T14:45:09.153Z,21.10
2023-04-30T14:47:36.500Z,21.60
2023-04-30T14:50:04.380Z,21.20
2023-04-30T14:52:31.637Z,21.40
2023-04-30T14:54:58.773Z,21.50
2023-04-30T14:57:26.059Z,21.60
2023-04-30T14:59:55.237Z,21.80
2023-04-30T15:02:22.716Z,21.40
2023-04-30T15:04:49.902Z,21.00
2023-04-30T15:07:17.096Z,20.50
2023-04-30T15:09:44.816Z,20.30
2023-04-30T15:12:12.023Z,20.20
2023-04-30T15:14:39.320Z,20.40
2023-04-30T15:17:06.956Z,20.30
2023-04-30T15:19:34.062Z,20.80
2023-04-30T15:22:01.299Z,21.20
2023-04-30T15:24:28.492Z,21.50
2023-04-30T15:26:55.636Z,21.60
2023-04-30T15:29:23.618Z,21.60
2023-04-30T15:31:54.462Z,21.10
2023-04-30T15:34:22.874Z,21.10
2023-04-30T15:36:56.571Z,21.30
2023-04-30T15:39:23.689Z,21.10
2023-04-30T15:41:50.903Z,21.10
2023-04-30T15:44:18.087Z,21.30
2023-04-30T15:46:45.150Z,21.00
2023-04-30T15:49:12.313Z,20.70
2023-04-30T15:51:39.386Z,20.50
2023-04-30T15:54:07.456Z,20.10
2023-04-30T15:56:35.827Z,19.80
2023-04-30T15:59:02.981Z,19.80
2023-04-30T16:01:30.337Z,19.40
2023-04-30T16:03:57.808Z,19.70
2023-04-30T16:06:25.087Z,20.20
2023-04-30T16:08:52.748Z,20.60
2023-04-30T16:11:24.711Z,20.90
2023-04-30T16:13:52.261Z,20.70
2023-04-30T16:16:19.791Z,21.00
2023-04-30T16:18:47.062Z,21.10
2023-04-30T16:21:14.412Z,21.20
2023-04-30T16:23:45.485Z,21.00
2023-04-30T16:26:12.891Z,20.70
2023-04-30T16:28:40.152Z,20.50
2023-04-30T16:31:07.483Z,20.30
2023-04-30T16:33:34.636Z,20.30
2023-04-30T16:36:02.268Z,20.10
2023-04-30T16:38:29.541Z,19.80
2023-04-30T16:40:56.802Z,19.50
2023-04-30T16:43:24.380Z,19.10
2023-04-30T16:45:53.015Z,19.00
2023-04-30T16:48:20.664Z,19.20
2023-04-30T16:50:48.253Z,19.20
2023-04-30T16:53:16.019Z,19.50
2023-04-30T16:55:43.912Z,19.60
2023-04-30T16:58:11.522Z,19.40
2023-04-30T17:00:39.520Z,19.50
2023-04-30T17:03:07.163Z,19.50
2023-04-30T17:05:34.801Z,19.40
2023-04-30T17:08:02.058Z,19.50
2023-04-30T17:10:30.440Z,19.40
2023-04-30T17:12:59.609Z,19.20
2023-04-30T17:15:27.253Z,19.20
2023-04-30T17:17:54.684Z,19.10
2023-04-30T17:20:22.040Z,18.90
2023-04-30T17:22:49.771Z,19.00
2023-04-30T17:25:17.317Z,18.90
2023-04-30T17:27:44.854Z,18.90
2023-04-30T17:30:12.318Z,18.90
2023-04-30T17:32:39.794Z,18.90
2023-04-30T17:35:07.538Z,18.80
2023-04-30T17:37:35.481Z,18.50
2023-04-30T17:40:03.472Z,18.30
2023-04-30T17:42:32.416Z,18.50
2023-04-30T17:45:00.987Z,18.30
2023-04-30T17:47:28.416Z,18.20
2023-04-30T17:49:56.200Z,18.10
2023-04-30T17:52:23.879Z,18.00
2023-04-30T17:54:51.110Z,17.80
2023-04-30T17:57:18.308Z,17.80
2023-04-30T17:59:45.569Z,17.60
2023-04-30T18:02:14.948Z,17.50
2023-04-30T18:04:42.076Z,17.40
2023-04-30T18:07:09.610Z,17.20
2023-04-30T18:09:36.885Z,17.00
2023-04-30T18:12:04.066Z,16.80
2023-04-30T18:14:32.206Z,17.00
2023-04-30T18:16:59.641Z,16.80
2023-04-30T18:19:26.882Z,16.70
2023-04-30T18:21:56.177Z,16.70
2023-04-30T18:24:27.990Z,16.60
2023-04-30T18:26:58.917Z,16.60
2023-04-30T18:29:26.953Z,16.50
2023-04-30T18:31:54.024Z,16.40
2023-04-30T18:34:23.576Z,16.20
2023-04-30T18:36:52.437Z,16.20
2023-04-30T18:39:20.419Z,16.30
2023-04-30T18:41:47.968Z,16.20
2023-04-30T18:44:15.461Z,16.10
2023-04-30T18:46:43.059Z,16.10
2023-04-30T18:49:10.616Z,16.00
2023-04-30T18:51:38.098Z,16.00
2023-04-30T18:54:05.490Z,16.00
2023-04-30T18:56:32.996Z,16.00
2023-04-30T18:59:00.376Z,15.90
2023-04-30T19:01:28.419Z,15.70
2023-04-30T19:03:56.127Z,15.70
2023-04-30T19:06:23.639Z,15.60
2023-04-30T19:08:51.397Z,15.60
2023-04-30T19:11:20.191Z,15.60
2023-04-30T19:13:47.515Z,15.60
2023-04-30T19:16:15.174Z,15.50
2023-04-30T19:18:42.614Z,15.40
2023-04-30T19:21:13.075Z,15.40
2023-04-30T19:23:40.414Z,15.40
2023-04-30T19:26:07.821Z,15.30
2023-04-30T19:28:35.210Z,15.30
2023-04-30T19:31:04.149Z,15.20
2023-04-30T19:33:36.939Z,15.10
2023-04-30T19:36:04.628Z,15.10
2023-04-30T19:38:32.047Z,15.10
2023-04-30T19:41:00.884Z,15.00
2023-04-30T19:43:28.128Z,14.90
2023-04-30T19:45:57.655Z,14.80
2023-04-30T19:48:26.860Z,14.90
2023-04-30T19:50:55.156Z,14.80
2023-04-30T19:53:22.737Z,14.70
2023-04-30T19:55:52.095Z,14.60
2023-04-30T19:58:20.103Z,14.70
2023-04-30T20:00:47.450Z,14.70
2023-04-30T20:03:16.471Z,14.60
2023-04-30T20:05:45.245Z,14.60
2023-04-30T20:08:12.560Z,14.60
2023-04-30T20:10:41.227Z,14.60
2023-04-30T20:13:09.591Z,14.70
2023-04-30T20:15:37.359Z,14.50
2023-04-30T20:18:07.923Z,14.50
2023-04-30T20:20:35.234Z,14.50
2023-04-30T20:23:14.789Z,14.50
2023-04-30T20:25:45.255Z,14.40
2023-04-30T20:28:19.300Z,14.30
2023-04-30T20:30:48.069Z,14.30
2023-04-30T20:33:15.746Z,14.40
2023-04-30T20:35:47.504Z,14.30
2023-04-30T20:38:19.673Z,14.40
2023-04-30T20:40:47.423Z,14.30
2023-04-30T20:43:14.783Z,14.40
2023-04-30T20:45:44.646Z,14.30
2023-04-30T20:48:11.932Z,14.30
2023-04-30T20:50:39.595Z,14.30
2023-04-30T20:53:08.345Z,14.40
2023-04-30T20:55:36.996Z,14.40
2023-04-30T20:58:04.319Z,14.10
2023-04-30T21:00:31.854Z,14.20
2023-04-30T21:02:59.415Z,14.20
2023-04-30T21:05:28.867Z,14.10
2023-04-30T21:08:01.304Z,14.10
2023-04-30T21:10:36.464Z,14.10
2023-04-30T21:13:05.503Z,14.00
2023-04-30T21:15:34.624Z,14.00
2023-04-30T21:18:01.832Z,14.00
2023-04-30T21:20:29.156Z,13.90
2023-04-30T21:22:56.636Z,13.90
2023-04-30T21:25:25.805Z,13.90
2023-04-30T21:27:53.158Z,13.90
2023-04-30T21:30:24.237Z,13.80
2023-04-30T21:32:58.288Z,13.70
2023-04-30T21:35:27.600Z,13.60
2023-04-30T21:37:55.044Z,13.70
2023-04-30T21:40:22.226Z,13.80
2023-04-30T21:42:49.328Z,13.60
2023-04-30T21:45:16.828Z,13.60
2023-04-30T21:47:44.818Z,13.60
2023-04-30T21:50:12.400Z,13.60
2023-04-30T21:52:39.496Z,13.60
2023-04-30T21:55:07.838Z,13.60
2023-04-30T21:57:34.892Z,13.60
2023-04-30T22:00:02.143Z,13.50
2023-04-30T22:02:32.643Z,13.20
2023-04-30T22:04:59.890Z,13.40
2023-04-30T22:07:27.447Z,13.40
2023-04-30T22:09:54.673Z,13.40
2023-04-30T22:12:25.069Z,13.00
2023-04-30T22:14:55.809Z,13.00
2023-04-30T22:17:23.363Z,13.10
2023-04-30T22:19:50.527Z,13.10
2023-04-30T22:22:17.710Z,13.20
2023-04-30T22:24:44.783Z,13.20
2023-04-30T22:27:12.124Z,13.30
2023-04-30T22:29:39.283Z,13.20
2023-04-30T22:32:07.332Z,13.20
2023-04-30T22:34:41.114Z,13.30
2023-04-30T22:37:12.180Z,13.10
2023-04-30T22:39:39.603Z,13.00
2023-04-30T22:42:08.497Z,13.10
2023-04-30T22:44:36.619Z,13.00
2023-04-30T22:47:04.102Z,13.00
2023-04-30T22:49:32.375Z,13.00
2023-04-30T22:52:00.336Z,12.80
2023-04-30T22:54:27.410Z,12.60
2023-04-30T22:56:54.521Z,12.70
2023-04-30T22:59:21.776Z,12.80
2023-04-30T23:01:49.411Z,12.80
2023-04-30T23:04:16.728Z,12.60
2023-04-30T23:06:43.902Z,12.70
2023-04-30T23:09:12.544Z,12.70
2023-04-30T23:11:39.662Z,12.70
2023-04-30T23:14:06.766Z,12.60
2023-04-30T23:16:33.828Z,12.70
2023-04-30T23:19:01.064Z,12.60
2023-04-30T23:21:28.111Z,12.50
2023-04-30T23:23:55.390Z,12.40
2023-04-30T23:26:22.884Z,12.10
2023-04-30T23:28:50.034Z,12.30
2023-04-30T23:31:18.220Z,11.80
2023-04-30T23:33:45.278Z,12.00
2023-04-30T23:36:12.386Z,11.80
2023-04-30T23:38:39.396Z,12.10
2023-04-30T23:41:06.362Z,12.00
2023-04-30T23:43:33.438Z,12.20
2023-04-30T23:46:00.633Z,12.20
2023-04-30T23:48:27.822Z,12.30
2023-04-30T23:51:02.165Z,12.10
2023-04-30T23:53:29.758Z,11.70
2023-04-30T23:55:57.972Z,11.80
2023-04-30T23:58:26.002Z,11.80
